Time;durP1;ratioP1;P1;durP2;ratioP2;P2;SDS_P1;SDS_P2;PMS_P1;PMS_P2;Temp;Humidity;BMP_temperature;BMP_pressure;BME280_temperature;BME280_humidity;BME280_pressure;Samples;Min_cycle;Max_cycle;Signal;HPM_P1;HPM_P2
2021/06/18 00:00:11;;;;;;;14.35;10.93;;;26.00;99.90;;;;;;5010781;28;20029;-71
2021/06/18 00:02:37;;;;;;;13.27;9.80;;;25.90;99.90;;;;;;5012513;28;20029;-70
2021/06/18 00:05:06;;;;;;;15.65;11.10;;;25.80;99.90;;;;;;5013980;28;20033;-70
2021/06/18 00:07:31;;;;;;;12.23;10.20;;;25.80;99.90;;;;;;5012560;28;20033;-68
2021/06/18 00:09:57;;;;;;;12.73;10.57;;;25.80;99.90;;;;;;5009243;28;20041;-69
2021/06/18 00:12:23;;;;;;;13.75;11.20;;;25.70;99.90;;;;;;5010972;28;20487;-69
2021/06/18 00:14:48;;;;;;;12.25;11.05;;;25.70;99.90;;;;;;5013244;28;20426;-68
2021/06/18 00:17:14;;;;;;;11.95;10.55;;;25.70;99.90;;;;;;5009053;28;20033;-70
2021/06/18 00:19:39;;;;;;;14.45;11.98;;;25.60;99.90;;;;;;5013100;28;20028;-69
2021/06/18 00:22:05;;;;;;;12.13;10.93;;;25.50;99.90;;;;;;5011990;28;20033;-69
2021/06/18 00:24:31;;;;;;;14.48;11.48;;;25.50;99.90;;;;;;5012070;28;20030;-69
2021/06/18 00:26:56;;;;;;;12.98;11.65;;;25.50;99.90;;;;;;5008555;28;20034;-68
2021/06/18 00:29:22;;;;;;;11.93;10.48;;;25.50;99.90;;;;;;5014175;28;20033;-71
2021/06/18 00:31:48;;;;;;;14.55;11.35;;;25.60;99.90;;;;;;5013881;28;20056;-69
2021/06/18 00:34:13;;;;;;;14.02;10.80;;;25.60;99.90;;;;;;5012976;28;20045;-69
2021/06/18 00:36:39;;;;;;;15.60;11.20;;;25.50;99.90;;;;;;5013892;28;20227;-69
2021/06/18 00:39:05;;;;;;;13.45;11.75;;;25.60;99.90;;;;;;5012975;28;20072;-69
2021/06/18 00:41:31;;;;;;;14.15;10.45;;;25.60;99.90;;;;;;5012891;28;20030;-68
2021/06/18 00:43:56;;;;;;;11.77;9.88;;;25.60;99.90;;;;;;5009171;28;20597;-68
2021/06/18 00:46:22;;;;;;;10.85;9.85;;;25.60;99.90;;;;;;5012401;28;20064;-69
2021/06/18 00:48:50;;;;;;;12.27;10.90;;;25.60;99.90;;;;;;5012071;28;20022;-69
2021/06/18 00:51:16;;;;;;;10.45;9.43;;;25.60;99.90;;;;;;5010462;28;20029;-68
2021/06/18 00:53:42;;;;;;;12.85;10.85;;;25.50;99.90;;;;;;5015042;28;20437;-69
2021/06/18 00:56:08;;;;;;;13.20;9.90;;;25.50;99.90;;;;;;5009025;28;20080;-68
2021/06/18 00:58:33;;;;;;;11.40;10.20;;;25.60;99.90;;;;;;5013068;28;20037;-69
2021/06/18 01:00:59;;;;;;;15.48;10.90;;;25.50;99.90;;;;;;5014739;28;20112;-69
2021/06/18 01:03:25;;;;;;;13.70;10.05;;;25.40;99.90;;;;;;5014863;28;20034;-69
2021/06/18 01:05:53;;;;;;;11.27;9.65;;;25.40;99.90;;;;;;5010476;28;20640;-68
2021/06/18 01:08:34;;;;;;;11.63;10.38;;;25.30;99.90;;;;;;5013239;28;20528;-71
2021/06/18 01:11:08;;;;;;;11.20;10.05;;;25.40;99.90;;;;;;5014047;28;20037;-73
2021/06/18 01:13:45;;;;;;;12.23;10.88;;;25.40;99.90;;;;;;5010256;28;20033;-70
2021/06/18 01:16:32;;;;;;;15.98;12.77;;;25.40;99.90;;;;;;5010526;28;20040;-72
2021/06/18 01:19:23;;;;;;;18.35;13.85;;;25.40;99.90;;;;;;5012592;28;20534;-69
2021/06/18 01:21:59;;;;;;;14.43;13.13;;;25.40;99.90;;;;;;5014797;28;20034;-69
2021/06/18 01:24:34;;;;;;;15.63;13.27;;;25.30;99.90;;;;;;5010660;28;20539;-70
2021/06/18 01:27:30;;;;;;;13.40;12.10;;;25.30;99.90;;;;;;5011960;28;20444;-71
2021/06/18 01:30:15;;;;;;;17.30;12.73;;;25.40;99.90;;;;;;5012805;28;20037;-68
2021/06/18 01:32:51;;;;;;;15.88;14.00;;;25.40;99.90;;;;;;5009030;28;20423;-69
2021/06/18 01:35:19;;;;;;;17.13;13.07;;;25.40;99.90;;;;;;5012920;28;20080;-69
2021/06/18 01:37:48;;;;;;;13.48;11.40;;;25.40;99.90;;;;;;5009181;28;20037;-71
2021/06/18 01:40:17;;;;;;;16.95;12.48;;;25.30;99.90;;;;;;5013242;28;20042;-69
2021/06/18 01:42:44;;;;;;;16.30;13.30;;;25.30;99.90;;;;;;5009922;28;20033;-70
2021/06/18 01:45:14;;;;;;;13.73;12.32;;;25.30;99.90;;;;;;5013559;28;20033;-69
2021/06/18 01:47:42;;;;;;;13.93;12.63;;;25.20;99.90;;;;;;5010833;28;20192;-69
2021/06/18 01:50:11;;;;;;;13.90;12.35;;;25.00;99.90;;;;;;5008949;28;20021;-68
2021/06/18 01:52:38;;;;;;;16.17;12.38;;;24.90;99.90;;;;;;5012602;28;20067;-73
2021/06/18 01:55:06;;;;;;;12.75;11.45;;;24.80;99.90;;;;;;5009882;28;20033;-69
2021/06/18 01:57:33;;;;;;;14.13;12.27;;;24.90;99.90;;;;;;5012102;28;20332;-69
2021/06/18 02:00:01;;;;;;;14.65;12.32;;;25.00;99.90;;;;;;5013812;28;20045;-68
2021/06/18 02:02:28;;;;;;;17.58;11.52;;;25.00;99.90;;;;;;5014245;28;20082;-69
2021/06/18 02:04:56;;;;;;;13.20;11.90;;;25.10;99.90;;;;;;5022800;28;20022;-69
2021/06/18 02:07:26;;;;;;;15.52;11.43;;;25.00;99.90;;;;;;5010019;28;20124;-68
2021/06/18 02:09:52;;;;;;;17.13;12.07;;;25.00;99.90;;;;;;5014035;28;20045;-69
2021/06/18 02:12:20;;;;;;;16.17;12.27;;;25.10;99.90;;;;;;5007899;28;20037;-69
2021/06/18 02:14:48;;;;;;;17.40;12.15;;;25.10;99.90;;;;;;5013235;28;20037;-70
2021/06/18 02:17:15;;;;;;;14.50;11.77;;;25.10;99.90;;;;;;5008037;28;20029;-69
2021/06/18 02:19:43;;;;;;;18.60;11.13;;;25.10;99.90;;;;;;5012312;28;20030;-70
2021/06/18 02:22:11;;;;;;;16.48;12.52;;;25.00;99.90;;;;;;5008271;28;20481;-68
2021/06/18 02:24:38;;;;;;;18.92;13.48;;;25.00;99.90;;;;;;5011733;28;20932;-71
2021/06/18 02:27:06;;;;;;;15.07;13.48;;;25.10;99.90;;;;;;5011403;28;20021;-69
2021/06/18 02:29:31;;;;;;;17.75;15.20;;;25.00;99.90;;;;;;5012049;28;20490;-68
2021/06/18 02:32:00;;;;;;;15.40;13.77;;;25.00;99.90;;;;;;5013697;28;20076;-69
2021/06/18 02:34:26;;;;;;;20.02;15.38;;;25.00;99.90;;;;;;5012861;28;20044;-69
2021/06/18 02:36:51;;;;;;;13.18;11.80;;;25.00;99.90;;;;;;5008448;28;20038;-69
2021/06/18 02:39:17;;;;;;;14.05;12.65;;;24.70;99.90;;;;;;5009503;28;20030;-68
2021/06/18 02:41:43;;;;;;;13.68;11.18;;;24.50;99.90;;;;;;5010135;28;20111;-69
2021/06/18 02:44:09;;;;;;;16.40;11.02;;;24.20;99.90;;;;;;5008074;28;20025;-69
2021/06/18 02:46:44;;;;;;;17.42;12.25;;;24.00;99.90;;;;;;5011969;28;20061;-68
2021/06/18 02:49:13;;;;;;;15.98;12.18;;;24.10;99.90;;;;;;5009554;28;20026;-68
2021/06/18 02:51:47;;;;;;;14.25;12.75;;;24.00;99.90;;;;;;5012268;28;20112;-68
2021/06/18 02:54:16;;;;;;;15.82;13.52;;;24.00;99.90;;;;;;5012577;28;20038;-68
2021/06/18 02:56:46;;;;;;;18.10;13.85;;;24.10;99.90;;;;;;5011256;28;20068;-68
2021/06/18 02:59:42;;;;;;;14.50;12.93;;;24.10;99.90;;;;;;5009633;28;20030;-72
2021/06/18 03:02:14;;;;;;;18.45;14.27;;;24.10;99.90;;;;;;5012947;28;20805;-68
2021/06/18 03:04:43;;;;;;;20.98;16.77;;;24.10;99.90;;;;;;5012368;28;20429;-68
2021/06/18 03:07:14;;;;;;;17.67;15.68;;;23.90;99.90;;;;;;5009430;28;20769;-67
2021/06/18 03:09:46;;;;;;;13.40;12.02;;;24.00;99.90;;;;;;5006528;28;20100;-69
2021/06/18 03:12:13;;;;;;;13.70;12.40;;;24.00;99.90;;;;;;5009212;28;20033;-68
2021/06/18 03:14:44;;;;;;;17.80;13.02;;;24.10;99.90;;;;;;5012185;28;20072;-68
2021/06/18 03:17:13;;;;;;;17.45;14.45;;;24.20;99.90;;;;;;5011366;28;20132;-68
2021/06/18 03:19:46;;;;;;;20.02;13.68;;;24.20;99.90;;;;;;5006239;28;20029;-71
2021/06/18 03:22:15;;;;;;;18.92;12.82;;;24.30;99.90;;;;;;5011513;28;20482;-71
2021/06/18 03:24:42;;;;;;;15.40;13.05;;;24.30;99.90;;;;;;5010912;28;20026;-72
2021/06/18 03:27:09;;;;;;;15.65;14.02;;;24.30;99.90;;;;;;5008994;28;20037;-71
2021/06/18 03:29:37;;;;;;;31.55;19.48;;;24.30;99.90;;;;;;5005804;28;20555;-72
2021/06/18 03:32:04;;;;;;;39.53;23.30;;;24.20;99.90;;;;;;5011207;28;20043;-72
2021/06/18 03:34:31;;;;;;;30.83;22.73;;;23.90;99.90;;;;;;5007896;28;20026;-76
2021/06/18 03:36:59;;;;;;;28.73;24.33;;;23.70;99.90;;;;;;5008303;28;20501;-73
2021/06/18 03:39:26;;;;;;;30.30;25.52;;;23.80;99.90;;;;;;5010832;28;20041;-73
2021/06/18 03:41:53;;;;;;;29.33;24.98;;;23.50;99.90;;;;;;5006003;28;20165;-73
2021/06/18 03:44:20;;;;;;;37.28;31.70;;;23.60;99.90;;;;;;5010911;28;20502;-72
2021/06/18 03:46:47;;;;;;;41.65;28.35;;;23.50;99.90;;;;;;5011326;28;20045;-73
2021/06/18 03:49:14;;;;;;;60.83;35.78;;;23.40;99.90;;;;;;5007064;28;20483;-72
2021/06/18 03:51:40;;;;;;;44.17;30.42;;;23.30;99.90;;;;;;5011484;28;20500;-72
2021/06/18 03:54:07;;;;;;;53.15;39.22;;;23.50;99.90;;;;;;5006088;28;20049;-73
2021/06/18 03:56:34;;;;;;;35.13;31.52;;;23.40;99.90;;;;;;5010024;28;20028;-73
2021/06/18 03:59:02;;;;;;;34.13;30.63;;;23.30;99.90;;;;;;5011453;28;20061;-73
2021/06/18 04:01:29;;;;;;;38.92;33.30;;;23.40;99.90;;;;;;5010889;28;20049;-73
2021/06/18 04:03:57;;;;;;;32.58;29.23;;;23.70;99.90;;;;;;5006267;28;20035;-72
2021/06/18 04:06:24;;;;;;;37.20;33.50;;;23.70;99.90;;;;;;5010227;28;20026;-71
2021/06/18 04:08:50;;;;;;;50.63;43.78;;;23.70;99.90;;;;;;5003684;28;20658;-72
2021/06/18 04:11:16;;;;;;;31.27;28.25;;;23.60;99.90;;;;;;5011051;28;20121;-72
2021/06/18 04:13:43;;;;;;;33.85;30.48;;;23.70;99.90;;;;;;5011012;28;20041;-73
2021/06/18 04:16:10;;;;;;;34.50;31.08;;;23.70;99.90;;;;;;5006239;28;20589;-72
2021/06/18 04:18:39;;;;;;;34.67;31.42;;;23.70;99.90;;;;;;5010129;28;20029;-71
2021/06/18 04:21:08;;;;;;;35.25;31.90;;;23.70;99.90;;;;;;5006476;28;20211;-72
2021/06/18 04:23:34;;;;;;;32.85;29.70;;;23.70;99.90;;;;;;5010731;28;20136;-73
2021/06/18 04:26:00;;;;;;;32.90;29.67;;;23.80;99.90;;;;;;5005217;28;20094;-72
2021/06/18 04:28:27;;;;;;;28.55;25.60;;;23.80;99.90;;;;;;5008333;28;20041;-72
2021/06/18 04:30:52;;;;;;;22.73;20.35;;;23.90;99.90;;;;;;5011558;28;21065;-73
2021/06/18 04:33:18;;;;;;;20.90;17.45;;;23.90;99.90;;;;;;5006043;28;20049;-71
2021/06/18 04:35:45;;;;;;;19.27;15.07;;;23.90;99.90;;;;;;5009710;28;21370;-72
2021/06/18 04:38:11;;;;;;;17.48;12.55;;;23.90;99.90;;;;;;5006900;28;20037;-72
2021/06/18 04:40:36;;;;;;;11.93;10.73;;;23.90;99.90;;;;;;5007801;28;20752;-72
2021/06/18 04:43:03;;;;;;;11.48;10.18;;;23.70;99.90;;;;;;5005273;28;20035;-73
2021/06/18 04:45:28;;;;;;;16.92;11.93;;;23.70;99.90;;;;;;5008482;28;20120;-73
2021/06/18 04:47:56;;;;;;;12.60;11.30;;;23.70;99.90;;;;;;5007346;28;20037;-73
2021/06/18 04:50:22;;;;;;;16.60;12.85;;;23.60;99.90;;;;;;5012647;28;20133;-73
2021/06/18 04:52:48;;;;;;;19.02;16.75;;;23.70;99.90;;;;;;5010937;28;20040;-73
2021/06/18 04:55:17;;;;;;;18.90;15.27;;;23.70;99.90;;;;;;5013007;28;20633;-72
2021/06/18 04:57:45;;;;;;;18.80;15.50;;;23.70;99.90;;;;;;5011627;28;21538;-72
2021/06/18 05:00:12;;;;;;;20.70;15.95;;;23.60;99.90;;;;;;5011063;28;20116;-73
2021/06/18 05:02:38;;;;;;;20.15;16.05;;;23.70;99.90;;;;;;5012722;28;20075;-72
2021/06/18 05:05:04;;;;;;;22.63;15.80;;;23.70;99.90;;;;;;5011801;28;20042;-73
2021/06/18 05:07:29;;;;;;;21.88;16.23;;;23.60;99.90;;;;;;5012551;28;20057;-73
2021/06/18 05:09:55;;;;;;;24.00;15.88;;;23.60;99.90;;;;;;5014419;28;20076;-73
2021/06/18 05:12:22;;;;;;;16.70;14.85;;;23.70;99.90;;;;;;5015102;28;20044;-73
2021/06/18 05:14:47;;;;;;;20.65;15.40;;;23.70;99.90;;;;;;5014823;28;20037;-73
2021/06/18 05:17:13;;;;;;;21.30;16.17;;;23.70;99.90;;;;;;5013983;28;20032;-72
2021/06/18 05:19:39;;;;;;;19.40;15.40;;;23.70;99.90;;;;;;5015604;28;20025;-72
2021/06/18 05:22:04;;;;;;;21.67;17.65;;;23.70;99.90;;;;;;5011036;28;20033;-72
2021/06/18 05:24:30;;;;;;;19.10;15.48;;;23.70;99.90;;;;;;5009859;28;20022;-72
2021/06/18 05:26:55;;;;;;;21.00;18.23;;;23.80;99.90;;;;;;5011516;28;20524;-72
2021/06/18 05:29:21;;;;;;;20.98;17.92;;;23.90;99.90;;;;;;5013092;28;21316;-72
2021/06/18 05:31:47;;;;;;;28.40;20.48;;;23.90;99.90;;;;;;5013572;28;20042;-73
2021/06/18 05:34:13;;;;;;;23.42;18.77;;;23.90;99.90;;;;;;5013000;28;20042;-72
2021/06/18 05:36:39;;;;;;;19.15;17.15;;;23.90;99.90;;;;;;5013580;28;20132;-73
2021/06/18 05:39:05;;;;;;;20.48;18.05;;;24.10;99.90;;;;;;5012850;28;20033;-73
2021/06/18 05:41:31;;;;;;;29.02;20.10;;;24.10;99.90;;;;;;5009328;28;20490;-72
2021/06/18 05:43:56;;;;;;;22.52;20.17;;;24.10;99.90;;;;;;5011809;28;20250;-73
2021/06/18 05:46:23;;;;;;;21.95;19.80;;;24.00;99.90;;;;;;5013291;28;21038;-73
2021/06/18 05:48:48;;;;;;;22.15;19.85;;;24.00;99.90;;;;;;5012150;28;20044;-72
2021/06/18 05:51:14;;;;;;;20.60;18.38;;;24.00;99.90;;;;;;5008983;28;20037;-72
2021/06/18 05:53:39;;;;;;;22.20;19.83;;;24.00;99.90;;;;;;5012645;28;20816;-71
2021/06/18 05:56:06;;;;;;;22.20;19.33;;;24.10;99.90;;;;;;5014894;28;20037;-72
2021/06/18 05:58:32;;;;;;;24.48;19.60;;;24.00;99.90;;;;;;5013522;28;20036;-72
2021/06/18 06:00:57;;;;;;;25.23;19.65;;;23.90;99.90;;;;;;5006661;28;20038;-72
2021/06/18 06:03:23;;;;;;;22.75;19.65;;;23.90;99.90;;;;;;5011527;28;20036;-72
2021/06/18 06:05:49;;;;;;;24.48;21.80;;;24.00;99.90;;;;;;5011500;28;20030;-73
2021/06/18 06:08:15;;;;;;;24.05;19.13;;;24.10;99.90;;;;;;5009661;28;20035;-71
2021/06/18 06:10:40;;;;;;;23.35;20.25;;;24.10;99.90;;;;;;5013285;28;20041;-72
2021/06/18 06:13:06;;;;;;;18.92;16.52;;;24.20;99.90;;;;;;5012522;28;20068;-72
2021/06/18 06:15:32;;;;;;;23.90;19.55;;;24.20;99.90;;;;;;5011096;28;20038;-73
2021/06/18 06:17:59;;;;;;;23.83;19.27;;;24.10;99.90;;;;;;5012760;28;20087;-73
2021/06/18 06:20:25;;;;;;;22.20;19.48;;;24.20;99.90;;;;;;5013768;28;20041;-72
2021/06/18 06:22:50;;;;;;;18.63;16.73;;;24.10;99.90;;;;;;5013686;28;20099;-73
2021/06/18 06:25:16;;;;;;;21.73;19.52;;;24.20;99.90;;;;;;5013244;28;20056;-73
2021/06/18 06:27:41;;;;;;;25.90;21.85;;;24.30;99.90;;;;;;5005986;28;20056;-72
2021/06/18 06:30:08;;;;;;;24.83;21.42;;;24.20;99.90;;;;;;5013183;28;20088;-73
2021/06/18 06:32:34;;;;;;;21.33;18.90;;;24.10;99.90;;;;;;5007148;28;20021;-72
2021/06/18 06:35:00;;;;;;;23.30;21.02;;;24.10;99.90;;;;;;5012946;28;20126;-72
2021/06/18 06:37:26;;;;;;;28.77;21.65;;;23.90;99.90;;;;;;5013391;28;20159;-73
2021/06/18 06:39:52;;;;;;;24.35;21.77;;;23.90;99.90;;;;;;5013235;28;20038;-73
2021/06/18 06:42:18;;;;;;;26.73;24.00;;;24.10;99.90;;;;;;5012410;28;20120;-72
2021/06/18 06:44:43;;;;;;;26.48;20.65;;;24.20;99.90;;;;;;5013314;28;20025;-73
2021/06/18 06:47:09;;;;;;;22.55;20.20;;;24.10;99.90;;;;;;5010119;28;20045;-72
2021/06/18 06:49:35;;;;;;;22.67;19.58;;;24.20;99.90;;;;;;5011006;28;20026;-72
2021/06/18 06:52:01;;;;;;;29.02;21.92;;;24.20;99.90;;;;;;5007955;28;20482;-72
2021/06/18 06:54:26;;;;;;;22.95;20.05;;;24.20;99.90;;;;;;5011215;28;20101;-74
2021/06/18 06:56:53;;;;;;;20.90;18.83;;;24.10;99.90;;;;;;5007782;28;20500;-72
2021/06/18 06:59:19;;;;;;;22.25;19.92;;;24.20;99.90;;;;;;5010496;28;20037;-72
2021/06/18 07:01:45;;;;;;;22.00;19.23;;;24.20;99.90;;;;;;5009405;28;20037;-72
2021/06/18 07:04:11;;;;;;;26.88;20.15;;;24.10;99.90;;;;;;5011166;28;20138;-72
2021/06/18 07:06:38;;;;;;;25.95;19.42;;;24.10;99.90;;;;;;5006496;28;20399;-72
2021/06/18 07:09:05;;;;;;;21.38;16.73;;;24.10;99.90;;;;;;5008003;28;20109;-72
2021/06/18 07:11:31;;;;;;;24.35;18.80;;;24.20;99.90;;;;;;5010851;28;20013;-72
2021/06/18 07:13:56;;;;;;;21.90;18.25;;;24.20;99.90;;;;;;5010454;28;20053;-71
2021/06/18 07:16:23;;;;;;;23.92;20.33;;;24.40;99.90;;;;;;5009284;28;20041;-72
2021/06/18 07:18:48;;;;;;;21.83;19.75;;;24.30;99.90;;;;;;4980307;28;20037;-72
2021/06/18 07:21:14;;;;;;;22.80;19.95;;;24.20;99.90;;;;;;5002154;28;21347;-72
2021/06/18 07:23:40;;;;;;;23.50;21.15;;;24.20;99.90;;;;;;5010456;28;20030;-71
2021/06/18 07:26:06;;;;;;;22.90;20.58;;;24.20;99.90;;;;;;5012266;28;20036;-72
2021/06/18 07:28:32;;;;;;;24.88;18.95;;;24.30;99.90;;;;;;5008354;28;20509;-72
2021/06/18 07:30:58;;;;;;;23.70;18.67;;;24.40;99.90;;;;;;5009102;28;20114;-72
2021/06/18 07:33:23;;;;;;;20.52;18.40;;;24.40;99.90;;;;;;5007236;28;20045;-72
2021/06/18 07:35:49;;;;;;;23.50;20.55;;;24.40;99.90;;;;;;5009696;28;20662;-72
2021/06/18 07:38:15;;;;;;;22.88;18.55;;;24.20;99.90;;;;;;5011578;28;20150;-72
2021/06/18 07:40:41;;;;;;;20.60;17.90;;;24.30;99.90;;;;;;5009884;28;20556;-69
2021/06/18 07:43:07;;;;;;;24.27;18.80;;;24.50;99.90;;;;;;5008200;28;20041;-71
2021/06/18 07:45:32;;;;;;;22.65;17.00;;;24.50;99.90;;;;;;5009226;28;20025;-69
2021/06/18 07:47:58;;;;;;;23.33;19.75;;;24.60;99.90;;;;;;5009160;28;20046;-72
2021/06/18 07:50:25;;;;;;;23.05;20.52;;;24.80;99.90;;;;;;5009938;28;20063;-69
2021/06/18 07:52:51;;;;;;;19.45;16.90;;;25.00;99.90;;;;;;5009919;28;20036;-70
2021/06/18 07:55:22;;;;;;;18.23;15.68;;;25.10;99.90;;;;;;5011822;28;20028;-69
2021/06/18 07:57:48;;;;;;;22.77;15.70;;;25.20;99.90;;;;;;5010714;28;20140;-69
2021/06/18 08:00:14;;;;;;;18.05;15.77;;;25.20;99.90;;;;;;5007626;28;20998;-69
2021/06/18 08:02:40;;;;;;;20.40;16.42;;;25.30;99.90;;;;;;5011295;28;20698;-73
2021/06/18 08:05:07;;;;;;;24.75;16.15;;;25.50;99.90;;;;;;5007620;28;20169;-74
2021/06/18 08:07:33;;;;;;;22.42;17.40;;;25.60;99.90;;;;;;5009998;28;20026;-71
2021/06/18 08:09:58;;;;;;;23.35;18.85;;;25.60;99.90;;;;;;5007538;28;20658;-74
2021/06/18 08:12:24;;;;;;;20.65;16.98;;;25.70;99.90;;;;;;5007826;28;20100;-76
2021/06/18 08:14:50;;;;;;;20.05;17.58;;;25.60;99.90;;;;;;5004381;28;20145;-76
2021/06/18 08:17:16;;;;;;;26.33;18.77;;;25.70;99.90;;;;;;5008563;28;20032;-76
2021/06/18 08:19:42;;;;;;;23.85;18.75;;;25.70;99.90;;;;;;5006485;28;20044;-71
2021/06/18 08:22:07;;;;;;;28.40;19.77;;;25.60;99.90;;;;;;5010038;28;20045;-71
2021/06/18 08:24:34;;;;;;;28.08;19.00;;;25.70;99.90;;;;;;5011955;28;20481;-77
2021/06/18 08:27:00;;;;;;;21.08;17.65;;;25.70;99.90;;;;;;5012975;28;20033;-76
2021/06/18 08:29:26;;;;;;;24.38;21.02;;;25.70;99.90;;;;;;5010966;28;20079;-73
2021/06/18 08:31:51;;;;;;;21.80;19.30;;;25.70;99.90;;;;;;5013413;28;20558;-79
2021/06/18 08:34:17;;;;;;;21.40;18.35;;;25.80;99.90;;;;;;5013607;28;20148;-72
2021/06/18 08:36:43;;;;;;;27.80;20.77;;;25.90;99.90;;;;;;5013267;28;20059;-74
2021/06/18 08:39:10;;;;;;;22.55;17.45;;;26.00;99.90;;;;;;5010166;28;20033;-75
2021/06/18 08:41:36;;;;;;;21.77;16.88;;;26.10;99.90;;;;;;5004875;28;20037;-78
2021/06/18 08:44:02;;;;;;;25.90;17.50;;;26.30;99.90;;;;;;5012955;28;20115;-79
2021/06/18 08:46:28;;;;;;;26.40;18.75;;;26.30;99.90;;;;;;5011336;28;20041;-75
2021/06/18 08:48:53;;;;;;;25.15;18.52;;;26.50;99.90;;;;;;5012337;28;20132;-75
2021/06/18 08:51:20;;;;;;;20.85;16.50;;;26.40;99.90;;;;;;5011633;28;20819;-72
2021/06/18 08:53:46;;;;;;;25.48;18.35;;;26.60;99.90;;;;;;5007947;28;20100;-71
2021/06/18 08:56:12;;;;;;;24.13;16.85;;;26.80;99.90;;;;;;5010328;28;20037;-74
2021/06/18 08:58:38;;;;;;;21.63;19.42;;;26.80;99.90;;;;;;5009407;28;20155;-74
2021/06/18 09:01:04;;;;;;;23.00;19.35;;;26.80;99.90;;;;;;5006887;28;20445;-75
2021/06/18 09:03:43;;;;;;;27.50;20.20;;;26.80;99.90;;;;;;5011455;28;20539;-74
2021/06/18 09:06:20;;;;;;;27.92;21.77;;;26.80;99.90;;;;;;5009384;28;20104;-72
2021/06/18 09:08:46;;;;;;;29.67;24.10;;;27.00;99.90;;;;;;5011908;28;20695;-70
2021/06/18 09:11:12;;;;;;;30.85;24.88;;;27.00;99.90;;;;;;5010968;28;20029;-75
2021/06/18 09:13:39;;;;;;;29.83;23.58;;;27.10;99.90;;;;;;5010498;28;21231;-72
2021/06/18 09:16:05;;;;;;;29.17;23.25;;;27.20;99.90;;;;;;5008604;28;20040;-73
2021/06/18 09:18:39;;;;;;;23.10;20.67;;;27.30;99.90;;;;;;5011751;28;20088;-74
2021/06/18 09:21:14;;;;;;;26.48;19.52;;;27.40;99.90;;;;;;5010530;28;20030;-74
2021/06/18 09:23:54;;;;;;;31.23;20.95;;;27.60;99.90;;;;;;5012594;28;20037;-74
2021/06/18 09:26:20;;;;;;;18.58;15.52;;;27.80;99.90;;;;;;5013011;28;20370;-75
2021/06/18 09:29:09;;;;;;;20.45;16.88;;;27.70;99.90;;;;;;5010614;28;20032;-75
2021/06/18 09:31:38;;;;;;;22.90;16.48;;;27.70;99.90;;;;;;5009907;28;20172;-75
2021/06/18 09:34:06;;;;;;;20.80;15.93;;;27.70;99.90;;;;;;5004858;28;20180;-73
2021/06/18 09:36:32;;;;;;;19.80;16.10;;;27.70;99.90;;;;;;5012937;28;20029;-73
2021/06/18 09:38:59;;;;;;;22.48;17.67;;;28.00;99.90;;;;;;5009694;28;20505;-75
2021/06/18 09:41:50;;;;;;;23.10;16.42;;;28.20;99.90;;;;;;5007719;28;20033;-70
2021/06/18 09:44:19;;;;;;;24.17;16.08;;;28.40;99.90;;;;;;5014281;28;20026;-73
2021/06/18 09:46:58;;;;;;;19.38;14.38;;;28.50;99.90;;;;;;5014420;28;20080;-76
2021/06/18 09:49:41;;;;;;;23.63;15.60;;;28.60;99.90;;;;;;5012849;28;20037;-74
2021/06/18 09:52:16;;;;;;;21.27;15.15;;;28.70;99.90;;;;;;5011422;28;20034;-71
2021/06/18 09:54:46;;;;;;;18.52;13.60;;;28.80;99.90;;;;;;5007060;28;20083;-74
2021/06/18 09:57:13;;;;;;;26.30;16.00;;;29.00;99.90;;;;;;5009963;28;20890;-72
2021/06/18 09:59:57;;;;;;;21.35;14.57;;;29.20;99.90;;;;;;5003332;28;20033;-74
2021/06/18 10:02:36;;;;;;;21.60;14.25;;;29.20;99.90;;;;;;5011295;28;20137;-70
2021/06/18 10:05:04;;;;;;;18.08;12.52;;;29.30;99.90;;;;;;5004889;28;20049;-74
2021/06/18 10:07:33;;;;;;;18.13;12.73;;;29.50;99.90;;;;;;5007298;28;20029;-70
2021/06/18 10:10:01;;;;;;;18.52;13.20;;;29.60;99.90;;;;;;5010378;28;20037;-71
2021/06/18 10:12:29;;;;;;;16.10;10.68;;;29.60;99.90;;;;;;5007547;28;20132;-71
2021/06/18 10:14:55;;;;;;;18.15;12.38;;;29.60;99.90;;;;;;5011557;28;20046;-70
2021/06/18 10:17:21;;;;;;;13.10;11.00;;;29.70;99.90;;;;;;5012837;28;20022;-71
2021/06/18 10:19:47;;;;;;;20.63;11.52;;;29.60;99.90;;;;;;5010415;28;20056;-73
2021/06/18 10:22:19;;;;;;;15.85;12.85;;;29.70;99.90;;;;;;5005568;28;20066;-71
2021/06/18 10:24:55;;;;;;;;;;;29.80;99.90;;;;;;5009851;28;20025;-72
2021/06/18 10:27:28;;;;;;;16.33;11.68;;;30.00;99.90;;;;;;5006358;28;19920;-73
2021/06/18 10:29:55;;;;;;;15.10;11.32;;;30.40;99.90;;;;;;5003334;28;20033;-73
2021/06/18 10:32:27;;;;;;;20.65;9.77;;;30.40;99.90;;;;;;5007819;28;20033;-74
2021/06/18 10:34:54;;;;;;;13.50;10.57;;;30.50;99.90;;;;;;5007993;28;20095;-74
2021/06/18 10:37:22;;;;;;;15.05;11.25;;;30.50;99.90;;;;;;5009940;28;20296;-76
2021/06/18 10:40:17;;;;;;;12.75;10.70;;;30.30;99.90;;;;;;5006383;28;20070;-76
2021/06/18 10:43:13;;;;;;;15.48;9.93;;;30.50;99.90;;;;;;4998901;28;20065;-73
2021/06/18 10:45:57;;;;;;;13.18;10.55;;;30.80;99.90;;;;;;5000611;28;20073;-72
2021/06/18 10:48:46;;;;;;;22.20;10.85;;;30.80;99.90;;;;;;5008385;28;20034;-73
2021/06/18 10:51:27;;;;;;;12.85;9.07;;;30.70;99.90;;;;;;5008524;28;20040;-76
2021/06/18 10:54:25;;;;;;;19.65;10.55;;;30.80;99.90;;;;;;5006629;28;20045;-73
2021/06/18 10:57:03;;;;;;;12.27;8.57;;;30.80;98.90;;;;;;5010989;28;20033;-75
2021/06/18 10:59:43;;;;;;;16.25;10.52;;;31.00;99.20;;;;;;5006988;28;20029;-76
2021/06/18 11:02:25;;;;;;;14.52;8.55;;;30.70;99.70;;;;;;5011602;28;20116;-76
2021/06/18 11:04:58;;;;;;;9.13;7.50;;;30.90;99.30;;;;;;5010543;28;20036;-73
2021/06/18 11:07:29;;;;;;;12.38;7.88;;;31.00;98.10;;;;;;5009815;28;20022;-72
2021/06/18 11:09:58;;;;;;;11.85;7.50;;;31.10;99.40;;;;;;5008288;28;21009;-73
2021/06/18 11:12:24;;;;;;;14.55;8.55;;;31.30;99.90;;;;;;5007345;28;20029;-76
2021/06/18 11:14:54;;;;;;;14.15;7.45;;;31.40;97.90;;;;;;5007758;28;20713;-76
2021/06/18 11:17:45;;;;;;;10.07;7.45;;;31.50;98.80;;;;;;5005843;28;20041;-74
2021/06/18 11:20:14;;;;;;;11.45;7.80;;;31.60;98.40;;;;;;5006408;28;20117;-75
2021/06/18 11:22:55;;;;;;;10.10;8.63;;;31.40;99.90;;;;;;5010458;28;20086;-75
2021/06/18 11:25:37;;;;;;;13.35;8.88;;;31.50;96.40;;;;;;5005825;28;20033;-72
2021/06/18 11:28:26;;;;;;;11.38;7.75;;;31.40;96.60;;;;;;5008009;28;20033;-72
2021/06/18 11:31:01;;;;;;;13.85;7.15;;;31.80;98.80;;;;;;4994290;28;20036;-73
2021/06/18 11:36:23;;;;;;;11.40;7.68;;;32.00;96.70;;;;;;5006990;28;20038;-72
2021/06/18 11:38:54;;;;;;;9.30;7.72;;;32.20;99.90;;;;;;5008829;28;20117;-73
2021/06/18 11:41:40;;;;;;;13.90;7.68;;;32.40;98.00;;;;;;5010723;28;20029;-76
2021/06/18 11:44:07;;;;;;;11.15;7.72;;;32.30;95.60;;;;;;5008615;28;20065;-75
2021/06/18 11:46:35;;;;;;;7.78;6.97;;;32.40;96.50;;;;;;5005813;28;20034;-72
2021/06/18 11:49:15;;;;;;;13.35;7.32;;;32.60;96.20;;;;;;5010467;28;20124;-70
2021/06/18 11:51:41;;;;;;;11.20;8.25;;;32.70;97.30;;;;;;5011646;28;20030;-76
2021/06/18 11:54:07;;;;;;;9.13;6.93;;;32.50;97.00;;;;;;5011524;28;20071;-74
2021/06/18 11:56:34;;;;;;;14.52;6.78;;;32.60;96.80;;;;;;5005826;28;20026;-70
2021/06/18 11:59:00;;;;;;;11.32;7.28;;;32.60;96.60;;;;;;5013624;28;20033;-70
2021/06/18 12:01:30;;;;;;;13.52;7.57;;;32.70;93.60;;;;;;5012080;28;20037;-70
2021/06/18 12:04:00;;;;;;;10.13;7.10;;;32.80;96.10;;;;;;5014872;28;20025;-75
2021/06/18 12:06:29;;;;;;;8.32;6.55;;;32.50;95.40;;;;;;5014773;28;20529;-77
2021/06/18 12:09:14;;;;;;;10.55;6.90;;;32.50;94.90;;;;;;5016012;28;20029;-72
2021/06/18 12:12:01;;;;;;;10.30;7.50;;;32.30;94.40;;;;;;5012968;28;20579;-71
2021/06/18 12:14:36;;;;;;;9.98;6.60;;;32.50;94.00;;;;;;5012048;28;20156;-71
2021/06/18 12:17:02;;;;;;;9.93;6.93;;;32.60;94.20;;;;;;5014025;28;20052;-76
2021/06/18 12:19:33;;;;;;;9.05;6.68;;;32.60;92.70;;;;;;5009037;28;20447;-78
2021/06/18 12:21:59;;;;;;;10.20;6.45;;;32.70;92.50;;;;;;5012076;28;20034;-77
2021/06/18 12:24:33;;;;;;;9.27;6.43;;;32.90;97.00;;;;;;5015505;28;20393;-72
2021/06/18 12:26:59;;;;;;;10.68;6.57;;;33.00;94.80;;;;;;5010329;28;20033;-72
2021/06/18 12:29:26;;;;;;;9.45;6.40;;;33.00;92.70;;;;;;5011803;28;20131;-76
2021/06/18 12:31:56;;;;;;;10.10;6.57;;;33.20;93.50;;;;;;5011272;28;20482;-72
2021/06/18 12:34:23;;;;;;;11.15;6.22;;;33.10;92.90;;;;;;5012032;28;20041;-73
2021/06/18 12:37:06;;;;;;;9.93;7.10;;;33.20;95.00;;;;;;5014988;28;20071;-71
2021/06/18 12:40:19;;;;;;;15.88;7.47;;;33.10;94.10;;;;;;5011192;28;20044;-74